sensor_id;sensor_type;location;lat;lon;timestamp;temperature;humidity
51825;DHT22;37879;52.986;6.282;2023-08-21T00:01:30;15.40;99.90
51825;DHT22;37879;52.986;6.282;2023-08-21T00:03:56;15.40;99.90
51825;DHT22;37879;52.986;6.282;2023-08-21T00:06:21;15.30;99.90
51825;DHT22;37879;52.986;6.282;2023-08-21T00:08:47;15.30;99.90
51825;DHT22;37879;52.986;6.282;2023-08-21T00:11:12;15.20;99.90
51825;DHT22;37879;52.986;6.282;2023-08-21T00:13:38;15.20;99.90
51825;DHT22;37879;52.986;6.282;2023-08-21T00:16:04;15.20;99.90
51825;DHT22;37879;52.986;6.282;2023-08-21T00:18:29;15.20;99.90
51825;DHT22;37879;52.986;6.282;2023-08-21T00:20:55;15.20;99.90
51825;DHT22;37879;52.986;6.282;2023-08-21T00:23:21;15.10;99.90
51825;DHT22;37879;52.986;6.282;2023-08-21T00:25:47;15.20;99.90
51825;DHT22;37879;52.986;6.282;2023-08-21T00:28:14;15.10;99.90
51825;DHT22;37879;52.986;6.282;2023-08-21T00:30:39;15.10;99.90
51825;DHT22;37879;52.986;6.282;2023-08-21T00:33:05;15.00;99.90
51825;DHT22;37879;52.986;6.282;2023-08-21T00:35:31;15.00;99.90
51825;DHT22;37879;52.986;6.282;2023-08-21T00:37:56;15.00;99.90
51825;DHT22;37879;52.986;6.282;2023-08-21T00:40:22;14.90;99.90
51825;DHT22;37879;52.986;6.282;2023-08-21T00:42:48;15.00;99.90
51825;DHT22;37879;52.986;6.282;2023-08-21T00:45:14;14.90;99.90
51825;DHT22;37879;52.986;6.282;2023-08-21T00:47:39;14.80;99.90
51825;DHT22;37879;52.986;6.282;2023-08-21T00:50:06;14.80;99.90
51825;DHT22;37879;52.986;6.282;2023-08-21T00:52:34;14.80;99.90
51825;DHT22;37879;52.986;6.282;2023-08-21T00:55:01;14.80;99.90
51825;DHT22;37879;52.986;6.282;2023-08-21T00:57:28;14.80;99.90
51825;DHT22;37879;52.986;6.282;2023-08-21T00:59:53;14.80;99.90
51825;DHT22;37879;52.986;6.282;2023-08-21T01:02:19;14.70;99.90
51825;DHT22;37879;52.986;6.282;2023-08-21T01:04:45;14.60;99.90
51825;DHT22;37879;52.986;6.282;2023-08-21T01:07:11;14.60;99.90
51825;DHT22;37879;52.986;6.282;2023-08-21T01:12:22;14.60;99.90
51825;DHT22;37879;52.986;6.282;2023-08-21T01:15:00;14.60;99.90
51825;DHT22;37879;52.986;6.282;2023-08-21T01:17:28;14.60;99.90
51825;DHT22;37879;52.986;6.282;2023-08-21T01:19:55;14.60;99.90
51825;DHT22;37879;52.986;6.282;2023-08-21T01:22:34;14.50;99.90
51825;DHT22;37879;52.986;6.282;2023-08-21T01:25:00;14.50;99.90
51825;DHT22;37879;52.986;6.282;2023-08-21T01:27:26;14.50;99.90
51825;DHT22;37879;52.986;6.282;2023-08-21T01:29:52;14.50;99.90
51825;DHT22;37879;52.986;6.282;2023-08-21T01:32:35;14.50;99.90
51825;DHT22;37879;52.986;6.282;2023-08-21T01:35:03;14.40;99.90
51825;DHT22;37879;52.986;6.282;2023-08-21T01:37:30;14.40;99.90
51825;DHT22;37879;52.986;6.282;2023-08-21T01:39:59;14.40;99.90
51825;DHT22;37879;52.986;6.282;2023-08-21T01:42:25;14.30;99.90
51825;DHT22;37879;52.986;6.282;2023-08-21T01:44:50;14.30;99.90
51825;DHT22;37879;52.986;6.282;2023-08-21T01:47:16;14.30;99.90
51825;DHT22;37879;52.986;6.282;2023-08-21T01:49:41;14.30;99.90
51825;DHT22;37879;52.986;6.282;2023-08-21T01:52:07;14.20;99.90
51825;DHT22;37879;52.986;6.282;2023-08-21T01:54:33;14.10;99.90
51825;DHT22;37879;52.986;6.282;2023-08-21T01:56:58;14.10;99.90
51825;DHT22;37879;52.986;6.282;2023-08-21T01:59:24;14.00;99.90
51825;DHT22;37879;52.986;6.282;2023-08-21T02:01:50;14.00;99.90
51825;DHT22;37879;52.986;6.282;2023-08-21T02:04:16;14.00;99.90
51825;DHT22;37879;52.986;6.282;2023-08-21T02:06:42;14.10;99.90
51825;DHT22;37879;52.986;6.282;2023-08-21T02:09:09;14.00;99.90
51825;DHT22;37879;52.986;6.282;2023-08-21T02:11:35;14.00;99.90
51825;DHT22;37879;52.986;6.282;2023-08-21T02:14:01;13.90;99.90
51825;DHT22;37879;52.986;6.282;2023-08-21T02:16:27;13.90;99.90
51825;DHT22;37879;52.986;6.282;2023-08-21T02:18:53;13.90;99.90
51825;DHT22;37879;52.986;6.282;2023-08-21T02:21:19;13.90;99.90
51825;DHT22;37879;52.986;6.282;2023-08-21T02:23:45;13.90;99.90
51825;DHT22;37879;52.986;6.282;2023-08-21T02:26:11;13.90;99.90
51825;DHT22;37879;52.986;6.282;2023-08-21T02:28:36;13.90;99.90
51825;DHT22;37879;52.986;6.282;2023-08-21T02:31:02;13.90;99.90
51825;DHT22;37879;52.986;6.282;2023-08-21T02:33:28;13.90;99.90
51825;DHT22;37879;52.986;6.282;2023-08-21T02:35:53;13.80;99.90
51825;DHT22;37879;52.986;6.282;2023-08-21T02:38:19;13.70;99.90
51825;DHT22;37879;52.986;6.282;2023-08-21T02:40:45;13.80;99.90
51825;DHT22;37879;52.986;6.282;2023-08-21T02:43:10;13.70;99.90
51825;DHT22;37879;52.986;6.282;2023-08-21T02:45:36;13.80;99.90
51825;DHT22;37879;52.986;6.282;2023-08-21T02:48:01;13.80;99.90
51825;DHT22;37879;52.986;6.282;2023-08-21T02:50:27;13.80;99.90
51825;DHT22;37879;52.986;6.282;2023-08-21T02:52:53;13.80;99.90
51825;DHT22;37879;52.986;6.282;2023-08-21T02:55:18;13.80;99.90
51825;DHT22;37879;52.986;6.282;2023-08-21T02:57:46;14.00;99.90
51825;DHT22;37879;52.986;6.282;2023-08-21T03:00:11;13.70;99.90
51825;DHT22;37879;52.986;6.282;2023-08-21T03:02:37;13.70;99.90
51825;DHT22;37879;52.986;6.282;2023-08-21T03:05:04;13.70;99.90
51825;DHT22;37879;52.986;6.282;2023-08-21T03:07:29;13.70;99.90
51825;DHT22;37879;52.986;6.282;2023-08-21T03:09:55;13.60;99.90
51825;DHT22;37879;52.986;6.282;2023-08-21T03:12:21;13.60;99.90
51825;DHT22;37879;52.986;6.282;2023-08-21T03:14:47;13.60;99.90
51825;DHT22;37879;52.986;6.282;2023-08-21T03:17:12;13.50;99.90
51825;DHT22;37879;52.986;6.282;2023-08-21T03:19:38;13.60;99.90
51825;DHT22;37879;52.986;6.282;2023-08-21T03:22:04;13.60;99.90
51825;DHT22;37879;52.986;6.282;2023-08-21T03:24:30;13.60;99.90
51825;DHT22;37879;52.986;6.282;2023-08-21T03:26:56;13.60;99.90
51825;DHT22;37879;52.986;6.282;2023-08-21T03:29:21;13.50;99.90
51825;DHT22;37879;52.986;6.282;2023-08-21T03:31:53;13.50;99.90
51825;DHT22;37879;52.986;6.282;2023-08-21T03:34:22;13.40;99.90
51825;DHT22;37879;52.986;6.282;2023-08-21T03:36:47;13.40;99.90
51825;DHT22;37879;52.986;6.282;2023-08-21T03:39:13;13.40;99.90
51825;DHT22;37879;52.986;6.282;2023-08-21T03:41:39;13.40;99.90
51825;DHT22;37879;52.986;6.282;2023-08-21T03:44:04;13.40;99.90
51825;DHT22;37879;52.986;6.282;2023-08-21T03:46:30;13.40;99.90
51825;DHT22;37879;52.986;6.282;2023-08-21T03:48:56;13.40;99.90
51825;DHT22;37879;52.986;6.282;2023-08-21T03:51:22;13.40;99.90
51825;DHT22;37879;52.986;6.282;2023-08-21T03:53:49;13.40;99.90
51825;DHT22;37879;52.986;6.282;2023-08-21T03:56:14;13.40;99.90
51825;DHT22;37879;52.986;6.282;2023-08-21T03:58:40;13.40;99.90
51825;DHT22;37879;52.986;6.282;2023-08-21T04:01:06;13.40;99.90
51825;DHT22;37879;52.986;6.282;2023-08-21T04:03:32;13.50;99.90
51825;DHT22;37879;52.986;6.282;2023-08-21T04:05:58;13.50;99.90
51825;DHT22;37879;52.986;6.282;2023-08-21T04:08:24;13.50;99.90
51825;DHT22;37879;52.986;6.282;2023-08-21T04:10:50;13.50;99.90
51825;DHT22;37879;52.986;6.282;2023-08-21T04:13:18;13.50;99.90
51825;DHT22;37879;52.986;6.282;2023-08-21T04:15:48;13.50;99.90
51825;DHT22;37879;52.986;6.282;2023-08-21T04:18:14;13.40;99.90
51825;DHT22;37879;52.986;6.282;2023-08-21T04:20:40;13.50;99.90
51825;DHT22;37879;52.986;6.282;2023-08-21T04:23:05;13.40;99.90
51825;DHT22;37879;52.986;6.282;2023-08-21T04:25:31;13.50;99.90
51825;DHT22;37879;52.986;6.282;2023-08-21T04:27:57;13.50;99.90
51825;DHT22;37879;52.986;6.282;2023-08-21T04:30:22;13.50;99.90
51825;DHT22;37879;52.986;6.282;2023-08-21T04:32:48;13.50;99.90
51825;DHT22;37879;52.986;6.282;2023-08-21T04:35:14;13.40;99.90
51825;DHT22;37879;52.986;6.282;2023-08-21T04:37:45;13.40;99.90
51825;DHT22;37879;52.986;6.282;2023-08-21T04:40:12;13.40;99.90
51825;DHT22;37879;52.986;6.282;2023-08-21T04:42:37;13.40;99.90
51825;DHT22;37879;52.986;6.282;2023-08-21T04:45:04;13.30;99.90
51825;DHT22;37879;52.986;6.282;2023-08-21T04:47:31;13.50;99.90
51825;DHT22;37879;52.986;6.282;2023-08-21T04:49:57;13.40;99.90
51825;DHT22;37879;52.986;6.282;2023-08-21T04:52:23;13.40;99.90
51825;DHT22;37879;52.986;6.282;2023-08-21T04:54:50;13.30;99.90
51825;DHT22;37879;52.986;6.282;2023-08-21T04:57:16;13.30;99.90
51825;DHT22;37879;52.986;6.282;2023-08-21T04:59:43;13.30;99.90
51825;DHT22;37879;52.986;6.282;2023-08-21T05:02:09;13.30;99.90
51825;DHT22;37879;52.986;6.282;2023-08-21T05:04:36;13.30;99.90
51825;DHT22;37879;52.986;6.282;2023-08-21T05:07:03;13.30;99.90
51825;DHT22;37879;52.986;6.282;2023-08-21T05:09:28;13.40;99.90
51825;DHT22;37879;52.986;6.282;2023-08-21T05:11:54;13.40;99.90
51825;DHT22;37879;52.986;6.282;2023-08-21T05:14:21;13.40;99.90
51825;DHT22;37879;52.986;6.282;2023-08-21T05:16:48;13.50;99.90
51825;DHT22;37879;52.986;6.282;2023-08-21T05:19:14;13.40;99.90
51825;DHT22;37879;52.986;6.282;2023-08-21T05:21:40;13.50;99.90
51825;DHT22;37879;52.986;6.282;2023-08-21T05:24:05;13.50;99.90
51825;DHT22;37879;52.986;6.282;2023-08-21T05:26:31;13.50;99.90
51825;DHT22;37879;52.986;6.282;2023-08-21T05:28:57;13.50;99.90
51825;DHT22;37879;52.986;6.282;2023-08-21T05:31:22;13.60;99.90
51825;DHT22;37879;52.986;6.282;2023-08-21T05:33:48;13.70;99.90
51825;DHT22;37879;52.986;6.282;2023-08-21T05:36:14;13.70;99.90
51825;DHT22;37879;52.986;6.282;2023-08-21T05:38:39;13.80;99.90
51825;DHT22;37879;52.986;6.282;2023-08-21T05:41:05;13.80;99.90
51825;DHT22;37879;52.986;6.282;2023-08-21T05:43:31;14.00;99.90
51825;DHT22;37879;52.986;6.282;2023-08-21T05:45:56;14.00;99.90
51825;DHT22;37879;52.986;6.282;2023-08-21T05:48:22;14.10;99.90
51825;DHT22;37879;52.986;6.282;2023-08-21T05:50:51;14.30;99.90
51825;DHT22;37879;52.986;6.282;2023-08-21T05:53:17;14.30;99.90
51825;DHT22;37879;52.986;6.282;2023-08-21T05:55:43;14.40;99.90
51825;DHT22;37879;52.986;6.282;2023-08-21T05:58:09;14.50;99.90
51825;DHT22;37879;52.986;6.282;2023-08-21T06:00:35;14.60;99.90
51825;DHT22;37879;52.986;6.282;2023-08-21T06:03:01;14.70;99.90
51825;DHT22;37879;52.986;6.282;2023-08-21T06:05:27;14.80;99.90
51825;DHT22;37879;52.986;6.282;2023-08-21T06:07:52;14.90;99.90
51825;DHT22;37879;52.986;6.282;2023-08-21T06:10:18;15.00;99.90
51825;DHT22;37879;52.986;6.282;2023-08-21T06:12:44;15.10;99.90
51825;DHT22;37879;52.986;6.282;2023-08-21T06:15:10;15.40;99.90
51825;DHT22;37879;52.986;6.282;2023-08-21T06:17:37;15.30;99.90
51825;DHT22;37879;52.986;6.282;2023-08-21T06:20:04;15.40;99.90
51825;DHT22;37879;52.986;6.282;2023-08-21T06:22:34;15.50;99.90
51825;DHT22;37879;52.986;6.282;2023-08-21T06:25:00;15.60;99.90
51825;DHT22;37879;52.986;6.282;2023-08-21T06:27:26;15.70;99.90
51825;DHT22;37879;52.986;6.282;2023-08-21T06:29:52;15.80;99.90
51825;DHT22;37879;52.986;6.282;2023-08-21T06:32:17;15.80;99.90
51825;DHT22;37879;52.986;6.282;2023-08-21T06:34:43;16.00;99.90
51825;DHT22;37879;52.986;6.282;2023-08-21T06:37:09;16.00;99.90
51825;DHT22;37879;52.986;6.282;2023-08-21T06:39:35;16.10;99.90
51825;DHT22;37879;52.986;6.282;2023-08-21T06:42:01;16.20;99.90
51825;DHT22;37879;52.986;6.282;2023-08-21T06:44:27;16.30;99.90
51825;DHT22;37879;52.986;6.282;2023-08-21T06:46:52;16.40;99.90
51825;DHT22;37879;52.986;6.282;2023-08-21T06:49:18;16.50;99.90
51825;DHT22;37879;52.986;6.282;2023-08-21T06:51:44;16.50;99.90
51825;DHT22;37879;52.986;6.282;2023-08-21T06:54:10;16.70;99.90
51825;DHT22;37879;52.986;6.282;2023-08-21T06:56:36;16.80;99.90
51825;DHT22;37879;52.986;6.282;2023-08-21T06:59:01;16.80;99.90
51825;DHT22;37879;52.986;6.282;2023-08-21T07:01:28;17.00;99.90
51825;DHT22;37879;52.986;6.282;2023-08-21T07:03:54;17.10;99.90
51825;DHT22;37879;52.986;6.282;2023-08-21T07:06:19;17.10;99.90
51825;DHT22;37879;52.986;6.282;2023-08-21T07:08:45;17.20;99.90
51825;DHT22;37879;52.986;6.282;2023-08-21T07:11:11;17.30;99.90
51825;DHT22;37879;52.986;6.282;2023-08-21T07:13:38;17.40;99.90
51825;DHT22;37879;52.986;6.282;2023-08-21T07:16:04;17.40;99.90
51825;DHT22;37879;52.986;6.282;2023-08-21T07:18:35;17.50;99.90
51825;DHT22;37879;52.986;6.282;2023-08-21T07:21:04;17.60;99.90
51825;DHT22;37879;52.986;6.282;2023-08-21T07:23:31;17.70;99.90
51825;DHT22;37879;52.986;6.282;2023-08-21T07:25:58;17.80;99.90
51825;DHT22;37879;52.986;6.282;2023-08-21T07:28:24;17.90;99.90
51825;DHT22;37879;52.986;6.282;2023-08-21T07:30:56;18.20;99.90
51825;DHT22;37879;52.986;6.282;2023-08-21T07:33:22;18.10;99.90
51825;DHT22;37879;52.986;6.282;2023-08-21T07:36:00;18.20;99.90
51825;DHT22;37879;52.986;6.282;2023-08-21T07:38:26;18.20;99.90
51825;DHT22;37879;52.986;6.282;2023-08-21T07:41:01;18.30;99.90
51825;DHT22;37879;52.986;6.282;2023-08-21T07:43:27;18.40;99.90
51825;DHT22;37879;52.986;6.282;2023-08-21T07:45:52;18.40;99.90
51825;DHT22;37879;52.986;6.282;2023-08-21T07:48:18;18.50;99.90
51825;DHT22;37879;52.986;6.282;2023-08-21T07:50:53;18.50;99.90
51825;DHT22;37879;52.986;6.282;2023-08-21T07:53:19;18.60;99.90
51825;DHT22;37879;52.986;6.282;2023-08-21T07:55:45;18.70;99.90
51825;DHT22;37879;52.986;6.282;2023-08-21T07:58:11;18.80;99.90
51825;DHT22;37879;52.986;6.282;2023-08-21T08:00:38;18.80;99.90
51825;DHT22;37879;52.986;6.282;2023-08-21T08:03:04;19.00;99.90
51825;DHT22;37879;52.986;6.282;2023-08-21T08:05:31;19.10;99.90
51825;DHT22;37879;52.986;6.282;2023-08-21T08:07:57;19.10;99.90
51825;DHT22;37879;52.986;6.282;2023-08-21T08:10:24;19.20;99.90
51825;DHT22;37879;52.986;6.282;2023-08-21T08:12:50;19.30;99.90
51825;DHT22;37879;52.986;6.282;2023-08-21T08:15:15;19.30;99.90
51825;DHT22;37879;52.986;6.282;2023-08-21T08:17:41;19.40;99.90
51825;DHT22;37879;52.986;6.282;2023-08-21T08:20:07;19.40;99.90
51825;DHT22;37879;52.986;6.282;2023-08-21T08:22:33;19.50;99.90
51825;DHT22;37879;52.986;6.282;2023-08-21T08:24:58;19.50;99.90
51825;DHT22;37879;52.986;6.282;2023-08-21T08:27:24;19.60;99.90
51825;DHT22;37879;52.986;6.282;2023-08-21T08:29:50;19.60;99.90
51825;DHT22;37879;52.986;6.282;2023-08-21T08:32:16;19.70;99.90
51825;DHT22;37879;52.986;6.282;2023-08-21T08:34:41;19.70;99.90
51825;DHT22;37879;52.986;6.282;2023-08-21T08:37:07;19.80;99.90
51825;DHT22;37879;52.986;6.282;2023-08-21T08:39:33;19.90;99.90
51825;DHT22;37879;52.986;6.282;2023-08-21T08:42:03;19.90;99.90
51825;DHT22;37879;52.986;6.282;2023-08-21T08:44:30;20.00;99.90
51825;DHT22;37879;52.986;6.282;2023-08-21T08:46:56;20.00;99.90
51825;DHT22;37879;52.986;6.282;2023-08-21T08:49:22;20.10;99.90
51825;DHT22;37879;52.986;6.282;2023-08-21T08:51:51;20.10;99.90
51825;DHT22;37879;52.986;6.282;2023-08-21T08:54:20;20.20;99.90
51825;DHT22;37879;52.986;6.282;2023-08-21T08:56:45;20.20;99.90
51825;DHT22;37879;52.986;6.282;2023-08-21T08:59:11;20.20;99.90
51825;DHT22;37879;52.986;6.282;2023-08-21T09:01:38;20.30;99.90
51825;DHT22;37879;52.986;6.282;2023-08-21T09:04:03;20.30;99.90
51825;DHT22;37879;52.986;6.282;2023-08-21T09:06:30;20.40;99.90
51825;DHT22;37879;52.986;6.282;2023-08-21T09:08:57;20.50;99.90
51825;DHT22;37879;52.986;6.282;2023-08-21T09:11:24;20.50;99.90
51825;DHT22;37879;52.986;6.282;2023-08-21T09:13:50;20.60;99.90
51825;DHT22;37879;52.986;6.282;2023-08-21T09:16:18;20.60;99.90
51825;DHT22;37879;52.986;6.282;2023-08-21T09:18:47;20.60;99.90
51825;DHT22;37879;52.986;6.282;2023-08-21T09:21:16;20.70;99.90
51825;DHT22;37879;52.986;6.282;2023-08-21T09:23:42;20.80;99.90
51825;DHT22;37879;52.986;6.282;2023-08-21T09:26:07;20.90;99.90
51825;DHT22;37879;52.986;6.282;2023-08-21T09:28:33;20.90;99.90
51825;DHT22;37879;52.986;6.282;2023-08-21T09:31:00;21.00;99.90
51825;DHT22;37879;52.986;6.282;2023-08-21T09:33:28;21.00;99.90
51825;DHT22;37879;52.986;6.282;2023-08-21T09:35:54;21.10;99.90
51825;DHT22;37879;52.986;6.282;2023-08-21T09:38:20;21.10;99.90
51825;DHT22;37879;52.986;6.282;2023-08-21T09:40:54;21.20;99.90
51825;DHT22;37879;52.986;6.282;2023-08-21T09:43:23;21.20;99.90
51825;DHT22;37879;52.986;6.282;2023-08-21T09:45:58;21.30;99.90
51825;DHT22;37879;52.986;6.282;2023-08-21T09:48:26;21.30;99.90
51825;DHT22;37879;52.986;6.282;2023-08-21T09:50:52;21.30;99.90
51825;DHT22;37879;52.986;6.282;2023-08-21T09:53:20;21.40;99.90
51825;DHT22;37879;52.986;6.282;2023-08-21T09:55:49;21.40;99.90
51825;DHT22;37879;52.986;6.282;2023-08-21T09:58:17;21.40;99.90
51825;DHT22;37879;52.986;6.282;2023-08-21T10:00:44;21.50;99.90
51825;DHT22;37879;52.986;6.282;2023-08-21T10:03:10;21.60;99.90
51825;DHT22;37879;52.986;6.282;2023-08-21T10:05:39;21.60;99.90
51825;DHT22;37879;52.986;6.282;2023-08-21T10:08:06;21.60;99.90
51825;DHT22;37879;52.986;6.282;2023-08-21T10:10:34;21.60;99.90
51825;DHT22;37879;52.986;6.282;2023-08-21T10:13:00;21.60;99.90
51825;DHT22;37879;52.986;6.282;2023-08-21T10:15:28;21.70;99.90
51825;DHT22;37879;52.986;6.282;2023-08-21T10:17:55;21.70;99.90
51825;DHT22;37879;52.986;6.282;2023-08-21T10:20:22;21.80;99.90
51825;DHT22;37879;52.986;6.282;2023-08-21T10:22:49;21.90;99.90
51825;DHT22;37879;52.986;6.282;2023-08-21T10:25:19;21.90;99.90
51825;DHT22;37879;52.986;6.282;2023-08-21T10:27:53;22.00;99.90
51825;DHT22;37879;52.986;6.282;2023-08-21T10:30:24;22.00;99.90
51825;DHT22;37879;52.986;6.282;2023-08-21T10:32:54;22.10;99.90
51825;DHT22;37879;52.986;6.282;2023-08-21T10:35:25;22.10;99.90
51825;DHT22;37879;52.986;6.282;2023-08-21T10:38:13;22.10;99.90
51825;DHT22;37879;52.986;6.282;2023-08-21T10:41:05;22.20;99.90
51825;DHT22;37879;52.986;6.282;2023-08-21T10:43:39;22.30;99.90
51825;DHT22;37879;52.986;6.282;2023-08-21T10:46:05;22.30;99.90
51825;DHT22;37879;52.986;6.282;2023-08-21T10:48:31;22.40;99.90
51825;DHT22;37879;52.986;6.282;2023-08-21T10:51:00;22.40;99.90
51825;DHT22;37879;52.986;6.282;2023-08-21T10:53:26;22.50;99.90
51825;DHT22;37879;52.986;6.282;2023-08-21T10:55:53;22.50;99.90
51825;DHT22;37879;52.986;6.282;2023-08-21T10:58:20;22.70;99.90
51825;DHT22;37879;52.986;6.282;2023-08-21T11:00:45;22.70;99.90
51825;DHT22;37879;52.986;6.282;2023-08-21T11:03:11;22.80;99.90
51825;DHT22;37879;52.986;6.282;2023-08-21T11:05:37;22.90;99.90
51825;DHT22;37879;52.986;6.282;2023-08-21T11:08:03;23.00;99.90
51825;DHT22;37879;52.986;6.282;2023-08-21T11:10:30;23.20;99.90
51825;DHT22;37879;52.986;6.282;2023-08-21T11:12:58;23.30;99.90
51825;DHT22;37879;52.986;6.282;2023-08-21T11:15:27;23.40;99.90
51825;DHT22;37879;52.986;6.282;2023-08-21T11:17:57;23.50;99.90
51825;DHT22;37879;52.986;6.282;2023-08-21T11:20:27;23.40;99.90
51825;DHT22;37879;52.986;6.282;2023-08-21T11:23:00;23.40;99.90
51825;DHT22;37879;52.986;6.282;2023-08-21T11:25:30;23.50;99.90
51825;DHT22;37879;52.986;6.282;2023-08-21T11:27:57;23.50;99.90
51825;DHT22;37879;52.986;6.282;2023-08-21T11:30:23;23.70;99.90
51825;DHT22;37879;52.986;6.282;2023-08-21T11:33:04;23.80;99.90
51825;DHT22;37879;52.986;6.282;2023-08-21T11:35:29;23.90;99.90
51825;DHT22;37879;52.986;6.282;2023-08-21T11:37:55;23.90;99.90
51825;DHT22;37879;52.986;6.282;2023-08-21T11:40:21;23.90;99.90
51825;DHT22;37879;52.986;6.282;2023-08-21T11:42:52;23.90;99.90
51825;DHT22;37879;52.986;6.282;2023-08-21T11:45:20;24.00;99.90
51825;DHT22;37879;52.986;6.282;2023-08-21T11:47:47;24.10;99.90
51825;DHT22;37879;52.986;6.282;2023-08-21T11:50:14;24.20;99.90
51825;DHT22;37879;52.986;6.282;2023-08-21T11:52:43;24.40;99.90
51825;DHT22;37879;52.986;6.282;2023-08-21T11:55:09;24.40;99.90
51825;DHT22;37879;52.986;6.282;2023-08-21T11:57:56;24.50;99.90
51825;DHT22;37879;52.986;6.282;2023-08-21T12:00:29;24.70;99.90
51825;DHT22;37879;52.986;6.282;2023-08-21T12:02:56;25.00;99.90
51825;DHT22;37879;52.986;6.282;2023-08-21T12:05:22;25.20;99.90
51825;DHT22;37879;52.986;6.282;2023-08-21T12:07:49;25.30;99.90
51825;DHT22;37879;52.986;6.282;2023-08-21T12:10:21;25.40;99.90
51825;DHT22;37879;52.986;6.282;2023-08-21T12:12:47;25.50;99.90
51825;DHT22;37879;52.986;6.282;2023-08-21T12:15:12;25.70;99.90
51825;DHT22;37879;52.986;6.282;2023-08-21T12:17:38;25.80;99.90
51825;DHT22;37879;52.986;6.282;2023-08-21T12:20:04;25.90;99.90
51825;DHT22;37879;52.986;6.282;2023-08-21T12:22:37;26.10;99.90
51825;DHT22;37879;52.986;6.282;2023-08-21T12:25:03;26.30;99.90
51825;DHT22;37879;52.986;6.282;2023-08-21T12:27:30;26.20;99.90
51825;DHT22;37879;52.986;6.282;2023-08-21T12:29:55;26.30;99.90
51825;DHT22;37879;52.986;6.282;2023-08-21T12:32:21;26.30;99.90
51825;DHT22;37879;52.986;6.282;2023-08-21T12:34:47;26.30;99.90
51825;DHT22;37879;52.986;6.282;2023-08-21T12:37:13;26.40;99.90
51825;DHT22;37879;52.986;6.282;2023-08-21T12:39:39;26.40;99.90
51825;DHT22;37879;52.986;6.282;2023-08-21T12:42:04;26.40;99.90
51825;DHT22;37879;52.986;6.282;2023-08-21T12:44:30;26.40;99.90
51825;DHT22;37879;52.986;6.282;2023-08-21T12:46:56;26.40;99.90
51825;DHT22;37879;52.986;6.282;2023-08-21T12:49:21;26.40;99.90
51825;DHT22;37879;52.986;6.282;2023-08-21T12:51:47;26.50;99.90
51825;DHT22;37879;52.986;6.282;2023-08-21T12:54:13;26.40;99.90
51825;DHT22;37879;52.986;6.282;2023-08-21T12:56:38;26.30;99.90
51825;DHT22;37879;52.986;6.282;2023-08-21T12:59:05;26.30;99.90
51825;DHT22;37879;52.986;6.282;2023-08-21T13:01:30;26.40;99.90
51825;DHT22;37879;52.986;6.282;2023-08-21T13:03:58;26.50;99.90
51825;DHT22;37879;52.986;6.282;2023-08-21T13:06:24;26.60;99.90
51825;DHT22;37879;52.986;6.282;2023-08-21T13:08:50;26.60;99.90
51825;DHT22;37879;52.986;6.282;2023-08-21T13:11:15;26.60;99.90
51825;DHT22;37879;52.986;6.282;2023-08-21T13:13:41;26.80;99.90
51825;DHT22;37879;52.986;6.282;2023-08-21T13:16:07;26.80;99.90
51825;DHT22;37879;52.986;6.282;2023-08-21T13:18:32;26.80;99.90
51825;DHT22;37879;52.986;6.282;2023-08-21T13:20:58;26.80;99.90
51825;DHT22;37879;52.986;6.282;2023-08-21T13:23:24;26.60;99.90
51825;DHT22;37879;52.986;6.282;2023-08-21T13:25:49;26.50;99.90
51825;DHT22;37879;52.986;6.282;2023-08-21T13:28:15;26.50;99.90
51825;DHT22;37879;52.986;6.282;2023-08-21T13:30:41;26.30;99.90
51825;DHT22;37879;52.986;6.282;2023-08-21T13:33:07;26.20;99.90
51825;DHT22;37879;52.986;6.282;2023-08-21T13:35:33;26.20;99.90
51825;DHT22;37879;52.986;6.282;2023-08-21T13:37:58;26.10;99.90
51825;DHT22;37879;52.986;6.282;2023-08-21T13:40:24;26.10;99.90
51825;DHT22;37879;52.986;6.282;2023-08-21T13:42:50;26.20;99.90
51825;DHT22;37879;52.986;6.282;2023-08-21T13:45:18;26.30;99.90
51825;DHT22;37879;52.986;6.282;2023-08-21T13:47:46;26.40;99.90
51825;DHT22;37879;52.986;6.282;2023-08-21T13:50:13;26.50;99.90
51825;DHT22;37879;52.986;6.282;2023-08-21T13:52:40;26.60;99.90
51825;DHT22;37879;52.986;6.282;2023-08-21T13:55:06;26.50;99.90
51825;DHT22;37879;52.986;6.282;2023-08-21T13:57:32;26.40;99.90
51825;DHT22;37879;52.986;6.282;2023-08-21T14:00:03;26.40;99.90
51825;DHT22;37879;52.986;6.282;2023-08-21T14:02:39;26.50;99.90
51825;DHT22;37879;52.986;6.282;2023-08-21T14:05:06;26.50;99.90
51825;DHT22;37879;52.986;6.282;2023-08-21T14:07:33;26.50;99.90
51825;DHT22;37879;52.986;6.282;2023-08-21T14:09:59;26.20;99.90
51825;DHT22;37879;52.986;6.282;2023-08-21T14:12:27;26.00;99.90
51825;DHT22;37879;52.986;6.282;2023-08-21T14:14:52;25.90;99.90
51825;DHT22;37879;52.986;6.282;2023-08-21T14:17:18;26.00;99.90
51825;DHT22;37879;52.986;6.282;2023-08-21T14:19:43;26.00;99.90
51825;DHT22;37879;52.986;6.282;2023-08-21T14:22:09;26.00;99.90
51825;DHT22;37879;52.986;6.282;2023-08-21T14:24:35;26.00;99.90
51825;DHT22;37879;52.986;6.282;2023-08-21T14:27:00;26.20;99.90
51825;DHT22;37879;52.986;6.282;2023-08-21T14:29:26;26.30;99.90
51825;DHT22;37879;52.986;6.282;2023-08-21T14:31:52;26.40;99.90
51825;DHT22;37879;52.986;6.282;2023-08-21T14:34:19;26.60;99.90
51825;DHT22;37879;52.986;6.282;2023-08-21T14:36:46;26.70;99.90
51825;DHT22;37879;52.986;6.282;2023-08-21T14:39:13;26.70;99.90
51825;DHT22;37879;52.986;6.282;2023-08-21T14:41:40;26.80;99.90
51825;DHT22;37879;52.986;6.282;2023-08-21T14:44:06;26.80;99.90
51825;DHT22;37879;52.986;6.282;2023-08-21T14:46:32;26.70;99.90
51825;DHT22;37879;52.986;6.282;2023-08-21T14:48:58;26.70;99.90
51825;DHT22;37879;52.986;6.282;2023-08-21T14:51:24;26.60;99.90
51825;DHT22;37879;52.986;6.282;2023-08-21T14:53:50;26.60;99.90
51825;DHT22;37879;52.986;6.282;2023-08-21T14:56:15;26.70;99.90
51825;DHT22;37879;52.986;6.282;2023-08-21T14:58:41;26.80;99.90
51825;DHT22;37879;52.986;6.282;2023-08-21T15:01:09;26.80;99.90
51825;DHT22;37879;52.986;6.282;2023-08-21T15:03:36;26.90;99.90
51825;DHT22;37879;52.986;6.282;2023-08-21T15:06:01;26.80;99.90
51825;DHT22;37879;52.986;6.282;2023-08-21T15:08:28;26.80;99.90
51825;DHT22;37879;52.986;6.282;2023-08-21T15:10:54;26.80;99.90
51825;DHT22;37879;52.986;6.282;2023-08-21T15:13:19;26.70;99.90
51825;DHT22;37879;52.986;6.282;2023-08-21T15:15:45;26.70;99.90
51825;DHT22;37879;52.986;6.282;2023-08-21T15:18:10;26.70;99.90
51825;DHT22;37879;52.986;6.282;2023-08-21T15:20:36;26.70;99.90
51825;DHT22;37879;52.986;6.282;2023-08-21T15:23:02;26.70;99.90
51825;DHT22;37879;52.986;6.282;2023-08-21T15:25:28;26.80;99.90
51825;DHT22;37879;52.986;6.282;2023-08-21T15:27:53;26.90;99.90
51825;DHT22;37879;52.986;6.282;2023-08-21T15:30:19;26.90;99.90